sensor_id;sensor_type;location;lat;lon;timestamp;pressure;altitude;pressure_sealevel;temperature;humidity
13486;BME280;6815;59.336;17.998;2023-08-12T00:01:20;52330.69;;;-145.37;79.30
13486;BME280;6815;59.336;17.998;2023-08-12T00:03:47;52302.75;;;-145.37;78.67
13486;BME280;6815;59.336;17.998;2023-08-12T00:06:13;52280.78;;;-145.37;79.10
13486;BME280;6815;59.336;17.998;2023-08-12T00:08:38;52256.84;;;-145.37;78.87
13486;BME280;6815;59.336;17.998;2023-08-12T00:11:04;52276.81;;;-145.37;78.88
13486;BME280;6815;59.336;17.998;2023-08-12T00:13:29;52336.69;;;-145.37;78.82
13486;BME280;6815;59.336;17.998;2023-08-12T00:15:55;52300.75;;;-145.37;78.83
13486;BME280;6815;59.336;17.998;2023-08-12T00:18:22;52256.84;;;-145.37;78.93
13486;BME280;6815;59.336;17.998;2023-08-12T00:20:47;52290.78;;;-145.37;79.19
13486;BME280;6815;59.336;17.998;2023-08-12T00:23:13;52286.78;;;-145.37;79.46
13486;BME280;6815;59.336;17.998;2023-08-12T00:25:38;52282.78;;;-145.37;79.29
13486;BME280;6815;59.336;17.998;2023-08-12T00:28:04;52302.75;;;-145.37;79.28
13486;BME280;6815;59.336;17.998;2023-08-12T00:30:30;52260.84;;;-145.37;79.67
13486;BME280;6815;59.336;17.998;2023-08-12T00:32:55;52282.78;;;-145.37;80.02
13486;BME280;6815;59.336;17.998;2023-08-12T00:35:20;52212.91;;;-145.37;80.27
13486;BME280;6815;59.336;17.998;2023-08-12T00:37:46;52276.81;;;-145.37;80.79
13486;BME280;6815;59.336;17.998;2023-08-12T00:40:13;52266.81;;;-145.37;80.67
13486;BME280;6815;59.336;17.998;2023-08-12T00:42:38;52296.75;;;-145.37;80.61
13486;BME280;6815;59.336;17.998;2023-08-12T00:45:09;52338.69;;;-145.37;80.31
13486;BME280;6815;59.336;17.998;2023-08-12T00:47:35;52272.81;;;-145.37;80.38
13486;BME280;6815;59.336;17.998;2023-08-12T00:50:02;52292.78;;;-145.37;80.29
13486;BME280;6815;59.336;17.998;2023-08-12T00:52:28;52272.81;;;-145.37;80.94
13486;BME280;6815;59.336;17.998;2023-08-12T00:54:53;52264.81;;;-145.37;81.58
13486;BME280;6815;59.336;17.998;2023-08-12T00:57:19;52276.81;;;-145.37;81.85
13486;BME280;6815;59.336;17.998;2023-08-12T00:59:44;52334.69;;;-145.37;82.56
13486;BME280;6815;59.336;17.998;2023-08-12T01:02:12;52268.81;;;-145.37;82.89
13486;BME280;6815;59.336;17.998;2023-08-12T01:04:37;52252.84;;;-145.37;82.55
13486;BME280;6815;59.336;17.998;2023-08-12T01:07:03;52288.78;;;-145.37;83.28
13486;BME280;6815;59.336;17.998;2023-08-12T01:09:29;52282.78;;;-145.37;83.42
13486;BME280;6815;59.336;17.998;2023-08-12T01:11:59;52242.88;;;-145.37;83.58
13486;BME280;6815;59.336;17.998;2023-08-12T01:17:09;52282.78;;;-145.37;83.41
13486;BME280;6815;59.336;17.998;2023-08-12T01:19:38;52284.78;;;-145.37;84.11
13486;BME280;6815;59.336;17.998;2023-08-12T01:22:08;52266.81;;;-145.37;83.97
13486;BME280;6815;59.336;17.998;2023-08-12T01:24:35;52250.84;;;-145.37;84.84
13486;BME280;6815;59.336;17.998;2023-08-12T01:27:01;52288.78;;;-145.37;84.24
13486;BME280;6815;59.336;17.998;2023-08-12T01:29:26;52294.75;;;-145.37;84.07
13486;BME280;6815;59.336;17.998;2023-08-12T01:31:56;52274.81;;;-145.37;84.35
13486;BME280;6815;59.336;17.998;2023-08-12T01:37:04;52280.78;;;-145.37;84.37
13486;BME280;6815;59.336;17.998;2023-08-12T01:39:33;52300.75;;;-145.37;83.60
13486;BME280;6815;59.336;17.998;2023-08-12T01:42:01;52364.63;;;-145.37;84.51
13486;BME280;6815;59.336;17.998;2023-08-12T01:44:27;52298.75;;;-145.37;85.19
13486;BME280;6815;59.336;17.998;2023-08-12T01:46:53;52272.81;;;-145.37;84.66
13486;BME280;6815;59.336;17.998;2023-08-12T01:49:19;52300.75;;;-145.37;85.18
13486;BME280;6815;59.336;17.998;2023-08-12T01:51:44;52276.81;;;-145.37;84.93
13486;BME280;6815;59.336;17.998;2023-08-12T01:54:09;52288.78;;;-145.37;84.73
13486;BME280;6815;59.336;17.998;2023-08-12T01:56:35;52300.75;;;-145.37;84.85
13486;BME280;6815;59.336;17.998;2023-08-12T01:59:00;52288.78;;;-145.37;84.93
13486;BME280;6815;59.336;17.998;2023-08-12T02:01:26;52280.78;;;-145.37;85.71
13486;BME280;6815;59.336;17.998;2023-08-12T02:03:51;52240.88;;;-145.37;86.02
13486;BME280;6815;59.336;17.998;2023-08-12T02:06:16;52288.78;;;-145.37;85.23
13486;BME280;6815;59.336;17.998;2023-08-12T02:08:42;52286.78;;;-145.37;85.39
13486;BME280;6815;59.336;17.998;2023-08-12T02:11:07;52292.78;;;-145.37;86.14
13486;BME280;6815;59.336;17.998;2023-08-12T02:13:33;52250.84;;;-145.37;86.27
13486;BME280;6815;59.336;17.998;2023-08-12T02:15:58;52278.78;;;-145.37;85.61
13486;BME280;6815;59.336;17.998;2023-08-12T02:18:23;52284.78;;;-145.37;86.34
13486;BME280;6815;59.336;17.998;2023-08-12T02:20:49;52288.78;;;-145.37;86.62
13486;BME280;6815;59.336;17.998;2023-08-12T02:23:14;52284.78;;;-145.37;85.87
13486;BME280;6815;59.336;17.998;2023-08-12T02:25:40;52274.81;;;-145.37;85.77
13486;BME280;6815;59.336;17.998;2023-08-12T02:28:05;52280.78;;;-145.37;85.32
13486;BME280;6815;59.336;17.998;2023-08-12T02:30:31;52290.78;;;-145.37;84.82
13486;BME280;6815;59.336;17.998;2023-08-12T02:32:56;52276.81;;;-145.37;84.85
13486;BME280;6815;59.336;17.998;2023-08-12T02:35:21;52286.78;;;-145.37;85.74
13486;BME280;6815;59.336;17.998;2023-08-12T02:37:50;52286.78;;;-145.37;85.79
13486;BME280;6815;59.336;17.998;2023-08-12T02:40:16;52284.78;;;-145.37;85.86
13486;BME280;6815;59.336;17.998;2023-08-12T02:42:41;52292.78;;;-145.37;85.73
13486;BME280;6815;59.336;17.998;2023-08-12T02:45:07;52304.75;;;-145.37;85.43
13486;BME280;6815;59.336;17.998;2023-08-12T02:47:32;52322.72;;;-145.37;84.98
13486;BME280;6815;59.336;17.998;2023-08-12T02:49:58;52278.78;;;-145.37;85.10
13486;BME280;6815;59.336;17.998;2023-08-12T02:52:23;52308.75;;;-145.37;85.58
13486;BME280;6815;59.336;17.998;2023-08-12T02:54:49;52286.78;;;-145.37;85.62
13486;BME280;6815;59.336;17.998;2023-08-12T02:57:14;52270.81;;;-145.37;85.38
13486;BME280;6815;59.336;17.998;2023-08-12T02:59:39;52294.75;;;-145.37;85.50
13486;BME280;6815;59.336;17.998;2023-08-12T03:02:05;52300.75;;;-145.37;85.62
13486;BME280;6815;59.336;17.998;2023-08-12T03:04:30;52248.84;;;-145.37;85.57
13486;BME280;6815;59.336;17.998;2023-08-12T03:06:56;52308.75;;;-145.37;85.41
13486;BME280;6815;59.336;17.998;2023-08-12T03:09:21;52276.81;;;-145.37;85.32
13486;BME280;6815;59.336;17.998;2023-08-12T03:11:46;52276.81;;;-145.37;85.77
13486;BME280;6815;59.336;17.998;2023-08-12T03:14:12;52264.81;;;-145.37;85.53
13486;BME280;6815;59.336;17.998;2023-08-12T03:16:37;52292.78;;;-145.37;85.04
13486;BME280;6815;59.336;17.998;2023-08-12T03:19:03;52306.75;;;-145.37;84.93
13486;BME280;6815;59.336;17.998;2023-08-12T03:21:28;52258.84;;;-145.37;84.74
13486;BME280;6815;59.336;17.998;2023-08-12T03:23:54;52264.81;;;-145.37;84.80
13486;BME280;6815;59.336;17.998;2023-08-12T03:26:19;52300.75;;;-145.37;84.45
13486;BME280;6815;59.336;17.998;2023-08-12T03:28:44;52296.75;;;-145.37;84.66
13486;BME280;6815;59.336;17.998;2023-08-12T03:31:10;52298.75;;;-145.37;84.74
13486;BME280;6815;59.336;17.998;2023-08-12T03:33:35;52280.78;;;-145.37;84.37
13486;BME280;6815;59.336;17.998;2023-08-12T03:36:01;52296.75;;;-145.37;84.03
13486;BME280;6815;59.336;17.998;2023-08-12T03:38:27;52282.78;;;-145.37;84.17
13486;BME280;6815;59.336;17.998;2023-08-12T03:40:53;52292.78;;;-145.37;84.10
13486;BME280;6815;59.336;17.998;2023-08-12T03:43:18;52292.78;;;-145.37;83.84
13486;BME280;6815;59.336;17.998;2023-08-12T03:45:44;52296.75;;;-145.37;83.04
13486;BME280;6815;59.336;17.998;2023-08-12T03:48:10;52284.78;;;-145.37;82.98
13486;BME280;6815;59.336;17.998;2023-08-12T03:50:40;52270.81;;;-145.37;83.43
13486;BME280;6815;59.336;17.998;2023-08-12T03:53:06;52288.78;;;-145.37;83.62
13486;BME280;6815;59.336;17.998;2023-08-12T03:55:32;52266.81;;;-145.37;83.36
13486;BME280;6815;59.336;17.998;2023-08-12T03:57:59;52260.84;;;-145.37;82.91
13486;BME280;6815;59.336;17.998;2023-08-12T04:00:25;52276.81;;;-145.37;83.31
13486;BME280;6815;59.336;17.998;2023-08-12T04:02:50;52286.78;;;-145.37;83.52
13486;BME280;6815;59.336;17.998;2023-08-12T04:05:15;52268.81;;;-145.37;82.80
13486;BME280;6815;59.336;17.998;2023-08-12T04:07:41;52276.81;;;-145.37;83.06
13486;BME280;6815;59.336;17.998;2023-08-12T04:10:07;52260.84;;;-145.37;82.60
13486;BME280;6815;59.336;17.998;2023-08-12T04:12:33;52296.75;;;-145.37;82.71
13486;BME280;6815;59.336;17.998;2023-08-12T04:14:58;52274.81;;;-145.37;82.50
13486;BME280;6815;59.336;17.998;2023-08-12T04:17:25;52270.81;;;-145.37;82.75
13486;BME280;6815;59.336;17.998;2023-08-12T04:19:50;52294.75;;;-145.37;82.00
13486;BME280;6815;59.336;17.998;2023-08-12T04:22:15;52296.75;;;-145.37;82.69
13486;BME280;6815;59.336;17.998;2023-08-12T04:24:42;52298.75;;;-145.37;82.66
13486;BME280;6815;59.336;17.998;2023-08-12T04:27:07;52304.75;;;-145.37;81.98
13486;BME280;6815;59.336;17.998;2023-08-12T04:29:32;52324.72;;;-145.37;81.66
13486;BME280;6815;59.336;17.998;2023-08-12T04:31:58;52254.84;;;-145.37;81.58
13486;BME280;6815;59.336;17.998;2023-08-12T04:34:23;52260.84;;;-145.37;81.31
13486;BME280;6815;59.336;17.998;2023-08-12T04:36:48;52260.84;;;-145.37;80.87
13486;BME280;6815;59.336;17.998;2023-08-12T04:39:14;52264.81;;;-145.37;80.91
13486;BME280;6815;59.336;17.998;2023-08-12T04:41:39;52272.81;;;-145.37;80.94
13486;BME280;6815;59.336;17.998;2023-08-12T04:44:05;52310.75;;;-145.37;80.39
13486;BME280;6815;59.336;17.998;2023-08-12T04:46:30;52290.78;;;-145.37;79.79
13486;BME280;6815;59.336;17.998;2023-08-12T04:48:56;52276.81;;;-145.37;79.91
13486;BME280;6815;59.336;17.998;2023-08-12T04:51:21;52274.81;;;-145.37;79.60
13486;BME280;6815;59.336;17.998;2023-08-12T04:53:47;52278.78;;;-145.37;79.52
13486;BME280;6815;59.336;17.998;2023-08-12T04:56:12;52254.84;;;-145.37;79.59
13486;BME280;6815;59.336;17.998;2023-08-12T04:58:38;52282.78;;;-145.37;79.63
13486;BME280;6815;59.336;17.998;2023-08-12T05:01:03;52298.75;;;-145.37;79.71
13486;BME280;6815;59.336;17.998;2023-08-12T05:03:29;52266.81;;;-145.37;79.43
13486;BME280;6815;59.336;17.998;2023-08-12T05:05:54;52318.72;;;-145.37;79.18
13486;BME280;6815;59.336;17.998;2023-08-12T05:08:20;52232.88;;;-145.37;78.65
13486;BME280;6815;59.336;17.998;2023-08-12T05:10:49;52280.78;;;-145.37;78.87
13486;BME280;6815;59.336;17.998;2023-08-12T05:13:15;52274.81;;;-145.37;78.57
13486;BME280;6815;59.336;17.998;2023-08-12T05:15:40;52276.81;;;-145.37;78.01
13486;BME280;6815;59.336;17.998;2023-08-12T05:18:06;52270.81;;;-145.37;78.14
13486;BME280;6815;59.336;17.998;2023-08-12T05:20:32;52268.81;;;-145.37;77.04
13486;BME280;6815;59.336;17.998;2023-08-12T05:22:57;52286.78;;;-145.37;77.09
13486;BME280;6815;59.336;17.998;2023-08-12T05:25:23;52258.84;;;-145.37;76.97
13486;BME280;6815;59.336;17.998;2023-08-12T05:27:49;52242.88;;;-145.37;77.31
13486;BME280;6815;59.336;17.998;2023-08-12T05:30:15;52252.84;;;-145.37;77.55
13486;BME280;6815;59.336;17.998;2023-08-12T05:32:40;52262.81;;;-145.37;78.22
13486;BME280;6815;59.336;17.998;2023-08-12T05:35:06;52260.84;;;-145.37;77.93
13486;BME280;6815;59.336;17.998;2023-08-12T05:37:31;52274.81;;;-145.37;78.14
13486;BME280;6815;59.336;17.998;2023-08-12T05:39:56;52268.81;;;-145.37;78.18
13486;BME280;6815;59.336;17.998;2023-08-12T05:42:22;52276.81;;;-145.37;78.04
13486;BME280;6815;59.336;17.998;2023-08-12T05:44:47;52292.78;;;-145.37;77.76
13486;BME280;6815;59.336;17.998;2023-08-12T05:47:13;52288.78;;;-145.37;77.95
13486;BME280;6815;59.336;17.998;2023-08-12T05:49:38;52248.84;;;-145.37;78.14
13486;BME280;6815;59.336;17.998;2023-08-12T05:52:04;52274.81;;;-145.37;77.87
13486;BME280;6815;59.336;17.998;2023-08-12T05:54:29;52272.81;;;-145.37;78.21
13486;BME280;6815;59.336;17.998;2023-08-12T05:56:55;52230.88;;;-145.37;78.08
13486;BME280;6815;59.336;17.998;2023-08-12T05:59:20;52226.91;;;-145.37;77.90
13486;BME280;6815;59.336;17.998;2023-08-12T06:01:45;52270.81;;;-145.37;77.71
13486;BME280;6815;59.336;17.998;2023-08-12T06:04:11;52260.84;;;-145.37;77.62
13486;BME280;6815;59.336;17.998;2023-08-12T06:06:36;52258.84;;;-145.37;77.49
13486;BME280;6815;59.336;17.998;2023-08-12T06:09:03;52258.84;;;-145.37;77.26
13486;BME280;6815;59.336;17.998;2023-08-12T06:11:28;52266.81;;;-145.37;76.02
13486;BME280;6815;59.336;17.998;2023-08-12T06:13:54;52244.84;;;-145.37;76.08
13486;BME280;6815;59.336;17.998;2023-08-12T06:16:19;52292.78;;;-145.37;74.99
13486;BME280;6815;59.336;17.998;2023-08-12T06:18:45;52230.88;;;-145.37;73.44
13486;BME280;6815;59.336;17.998;2023-08-12T06:21:10;52288.78;;;-145.37;73.28
13486;BME280;6815;59.336;17.998;2023-08-12T06:23:35;52280.78;;;-145.37;73.33
13486;BME280;6815;59.336;17.998;2023-08-12T06:26:01;52394.59;;;-145.37;73.55
13486;BME280;6815;59.336;17.998;2023-08-12T06:28:26;52296.75;;;-145.37;73.63
13486;BME280;6815;59.336;17.998;2023-08-12T06:30:52;52252.84;;;-145.37;73.49
13486;BME280;6815;59.336;17.998;2023-08-12T06:33:18;52246.84;;;-145.37;73.59
13486;BME280;6815;59.336;17.998;2023-08-12T06:35:44;52238.88;;;-145.37;73.61
13486;BME280;6815;59.336;17.998;2023-08-12T06:38:09;52260.84;;;-145.37;73.29
13486;BME280;6815;59.336;17.998;2023-08-12T06:40:38;52276.81;;;-145.37;73.40
13486;BME280;6815;59.336;17.998;2023-08-12T06:43:04;52228.88;;;-145.37;73.52
13486;BME280;6815;59.336;17.998;2023-08-12T06:45:29;52248.84;;;-145.37;73.35
13486;BME280;6815;59.336;17.998;2023-08-12T06:47:55;52238.88;;;-145.37;73.39
13486;BME280;6815;59.336;17.998;2023-08-12T06:50:20;52244.84;;;-145.37;73.05
13486;BME280;6815;59.336;17.998;2023-08-12T06:52:45;52260.84;;;-145.37;72.89
13486;BME280;6815;59.336;17.998;2023-08-12T06:55:11;52266.81;;;-145.37;73.02
13486;BME280;6815;59.336;17.998;2023-08-12T06:57:36;52260.84;;;-145.37;73.03
13486;BME280;6815;59.336;17.998;2023-08-12T07:00:02;52232.88;;;-145.37;73.21
13486;BME280;6815;59.336;17.998;2023-08-12T07:02:28;52284.78;;;-145.37;73.01
13486;BME280;6815;59.336;17.998;2023-08-12T07:04:53;52240.88;;;-145.37;73.01
13486;BME280;6815;59.336;17.998;2023-08-12T07:07:19;52288.78;;;-145.37;72.38
13486;BME280;6815;59.336;17.998;2023-08-12T07:09:44;52244.84;;;-145.37;72.01
13486;BME280;6815;59.336;17.998;2023-08-12T07:12:09;52268.81;;;-145.37;72.34
13486;BME280;6815;59.336;17.998;2023-08-12T07:14:35;52254.84;;;-145.37;72.78
13486;BME280;6815;59.336;17.998;2023-08-12T07:17:00;52192.97;;;-145.37;72.91
13486;BME280;6815;59.336;17.998;2023-08-12T07:19:26;52288.78;;;-145.37;72.89
13486;BME280;6815;59.336;17.998;2023-08-12T07:21:51;52246.84;;;-145.37;72.66
13486;BME280;6815;59.336;17.998;2023-08-12T07:24:17;52250.84;;;-145.37;72.93
13486;BME280;6815;59.336;17.998;2023-08-12T07:26:42;52300.75;;;-145.37;73.13
13486;BME280;6815;59.336;17.998;2023-08-12T07:29:08;52274.81;;;-145.37;73.29
13486;BME280;6815;59.336;17.998;2023-08-12T07:31:33;52246.84;;;-145.37;73.17
13486;BME280;6815;59.336;17.998;2023-08-12T07:33:59;52270.81;;;-145.37;72.89
13486;BME280;6815;59.336;17.998;2023-08-12T07:36:24;52276.81;;;-145.37;72.92
13486;BME280;6815;59.336;17.998;2023-08-12T07:38:49;52214.91;;;-145.37;72.63
13486;BME280;6815;59.336;17.998;2023-08-12T07:41:15;52260.84;;;-145.37;71.81
13486;BME280;6815;59.336;17.998;2023-08-12T07:43:40;52280.78;;;-145.37;71.19
13486;BME280;6815;59.336;17.998;2023-08-12T07:46:06;52258.84;;;-145.37;70.49
13486;BME280;6815;59.336;17.998;2023-08-12T07:48:31;52250.84;;;-145.37;70.27
13486;BME280;6815;59.336;17.998;2023-08-12T07:50:57;52256.84;;;-145.37;69.94
13486;BME280;6815;59.336;17.998;2023-08-12T07:53:23;52282.78;;;-145.37;69.77
13486;BME280;6815;59.336;17.998;2023-08-12T07:55:49;52312.72;;;-145.37;69.26
13486;BME280;6815;59.336;17.998;2023-08-12T07:58:14;52290.78;;;-145.37;68.58
13486;BME280;6815;59.336;17.998;2023-08-12T08:00:40;52242.88;;;-145.37;68.20
13486;BME280;6815;59.336;17.998;2023-08-12T08:03:05;52226.91;;;-145.37;67.91
13486;BME280;6815;59.336;17.998;2023-08-12T08:05:30;52248.84;;;-145.37;68.14
13486;BME280;6815;59.336;17.998;2023-08-12T08:07:56;52276.81;;;-145.37;68.28
13486;BME280;6815;59.336;17.998;2023-08-12T08:10:22;52242.88;;;-145.37;68.32
13486;BME280;6815;59.336;17.998;2023-08-12T08:12:47;52216.91;;;-145.37;68.85
13486;BME280;6815;59.336;17.998;2023-08-12T08:15:13;52242.88;;;-145.37;68.92
13486;BME280;6815;59.336;17.998;2023-08-12T08:17:38;52242.88;;;-145.37;68.88
13486;BME280;6815;59.336;17.998;2023-08-12T08:20:04;52252.84;;;-145.37;68.77
13486;BME280;6815;59.336;17.998;2023-08-12T08:22:31;52296.75;;;-145.37;68.54
13486;BME280;6815;59.336;17.998;2023-08-12T08:24:56;52296.75;;;-145.37;68.13
13486;BME280;6815;59.336;17.998;2023-08-12T08:27:21;52250.84;;;-145.37;68.18
13486;BME280;6815;59.336;17.998;2023-08-12T08:29:47;52260.84;;;-145.37;68.30
13486;BME280;6815;59.336;17.998;2023-08-12T08:32:13;52240.88;;;-145.37;68.05
13486;BME280;6815;59.336;17.998;2023-08-12T08:34:38;52232.88;;;-145.37;68.14
13486;BME280;6815;59.336;17.998;2023-08-12T08:37:03;52320.72;;;-145.37;68.27
13486;BME280;6815;59.336;17.998;2023-08-12T08:39:29;52244.84;;;-145.37;68.38
13486;BME280;6815;59.336;17.998;2023-08-12T08:41:56;52252.84;;;-145.37;68.57
13486;BME280;6815;59.336;17.998;2023-08-12T08:44:22;52246.84;;;-145.37;68.60
13486;BME280;6815;59.336;17.998;2023-08-12T08:46:52;52252.84;;;-145.37;68.62
13486;BME280;6815;59.336;17.998;2023-08-12T08:49:19;52262.81;;;-145.37;68.40
13486;BME280;6815;59.336;17.998;2023-08-12T08:51:46;52278.78;;;-145.37;68.15
13486;BME280;6815;59.336;17.998;2023-08-12T08:54:12;52214.91;;;-145.37;67.59
13486;BME280;6815;59.336;17.998;2023-08-12T08:56:38;52226.91;;;-145.37;67.34
13486;BME280;6815;59.336;17.998;2023-08-12T08:59:04;52216.91;;;-145.37;67.46
13486;BME280;6815;59.336;17.998;2023-08-12T09:01:30;52242.88;;;-145.37;67.27
13486;BME280;6815;59.336;17.998;2023-08-12T09:03:57;52258.84;;;-145.37;66.52
13486;BME280;6815;59.336;17.998;2023-08-12T09:06:25;52260.84;;;-145.37;65.77
13486;BME280;6815;59.336;17.998;2023-08-12T09:08:54;52206.94;;;-145.37;66.05
13486;BME280;6815;59.336;17.998;2023-08-12T09:11:20;52232.88;;;-145.37;65.68
13486;BME280;6815;59.336;17.998;2023-08-12T09:13:46;52246.84;;;-145.37;65.30
13486;BME280;6815;59.336;17.998;2023-08-12T09:16:13;52184.97;;;-145.37;65.35
13486;BME280;6815;59.336;17.998;2023-08-12T09:18:40;52252.84;;;-145.37;65.13
13486;BME280;6815;59.336;17.998;2023-08-12T09:21:08;52244.84;;;-145.37;64.95
13486;BME280;6815;59.336;17.998;2023-08-12T09:23:35;52232.88;;;-145.37;64.74
13486;BME280;6815;59.336;17.998;2023-08-12T09:26:02;52316.72;;;-145.37;65.01
13486;BME280;6815;59.336;17.998;2023-08-12T09:28:29;52244.84;;;-145.37;65.00
13486;BME280;6815;59.336;17.998;2023-08-12T09:30:54;52264.81;;;-145.37;65.26
13486;BME280;6815;59.336;17.998;2023-08-12T09:33:26;52252.84;;;-145.37;65.11
13486;BME280;6815;59.336;17.998;2023-08-12T09:35:52;52340.69;;;-145.37;65.49
13486;BME280;6815;59.336;17.998;2023-08-12T09:38:17;52200.94;;;-145.37;65.54
13486;BME280;6815;59.336;17.998;2023-08-12T09:40:43;52266.81;;;-145.37;65.65
13486;BME280;6815;59.336;17.998;2023-08-12T09:43:09;52248.84;;;-145.37;65.95
13486;BME280;6815;59.336;17.998;2023-08-12T09:45:36;52180.97;;;-145.37;65.59
13486;BME280;6815;59.336;17.998;2023-08-12T09:48:02;52262.81;;;-145.37;65.92
13486;BME280;6815;59.336;17.998;2023-08-12T09:50:28;52236.88;;;-145.37;66.02
13486;BME280;6815;59.336;17.998;2023-08-12T09:52:54;52246.84;;;-145.37;66.03
13486;BME280;6815;59.336;17.998;2023-08-12T09:55:23;52228.88;;;-145.37;66.09
13486;BME280;6815;59.336;17.998;2023-08-12T09:57:53;52250.84;;;-145.37;66.01
13486;BME280;6815;59.336;17.998;2023-08-12T10:00:21;52228.88;;;-145.37;65.65
13486;BME280;6815;59.336;17.998;2023-08-12T10:02:48;52214.91;;;-145.37;65.70
13486;BME280;6815;59.336;17.998;2023-08-12T10:05:19;52214.91;;;-145.37;66.24
13486;BME280;6815;59.336;17.998;2023-08-12T10:07:47;52212.91;;;-145.37;66.19
13486;BME280;6815;59.336;17.998;2023-08-12T10:10:13;52212.91;;;-145.37;66.28
13486;BME280;6815;59.336;17.998;2023-08-12T10:12:39;52222.91;;;-145.37;66.46
13486;BME280;6815;59.336;17.998;2023-08-12T10:15:06;52204.94;;;-145.37;66.70
13486;BME280;6815;59.336;17.998;2023-08-12T10:17:33;52332.69;;;-145.37;66.88
13486;BME280;6815;59.336;17.998;2023-08-12T10:20:01;52216.91;;;-145.37;67.07
13486;BME280;6815;59.336;17.998;2023-08-12T10:22:29;52214.91;;;-145.37;67.05
13486;BME280;6815;59.336;17.998;2023-08-12T10:24:56;52198.94;;;-145.37;67.19
13486;BME280;6815;59.336;17.998;2023-08-12T10:27:23;52212.91;;;-145.37;67.56
13486;BME280;6815;59.336;17.998;2023-08-12T10:29:49;52218.91;;;-145.37;67.83
13486;BME280;6815;59.336;17.998;2023-08-12T10:32:14;52240.88;;;-145.37;67.61
13486;BME280;6815;59.336;17.998;2023-08-12T10:34:40;52206.94;;;-145.37;67.94
13486;BME280;6815;59.336;17.998;2023-08-12T10:37:05;52224.91;;;-145.37;67.75
13486;BME280;6815;59.336;17.998;2023-08-12T10:39:32;52254.84;;;-145.37;67.69
13486;BME280;6815;59.336;17.998;2023-08-12T10:41:58;52234.88;;;-145.37;67.64
13486;BME280;6815;59.336;17.998;2023-08-12T10:44:39;52236.88;;;-145.37;67.22
13486;BME280;6815;59.336;17.998;2023-08-12T10:47:08;52240.88;;;-145.37;67.50
13486;BME280;6815;59.336;17.998;2023-08-12T10:49:38;52268.81;;;-145.37;68.24
13486;BME280;6815;59.336;17.998;2023-08-12T10:52:04;52232.88;;;-145.37;68.57
13486;BME280;6815;59.336;17.998;2023-08-12T10:54:30;52260.84;;;-145.37;68.67
13486;BME280;6815;59.336;17.998;2023-08-12T11:04:53;52222.91;;;-145.37;68.80
13486;BME280;6815;59.336;17.998;2023-08-12T11:07:21;52226.91;;;-145.37;68.80
13486;BME280;6815;59.336;17.998;2023-08-12T11:09:52;52222.91;;;-145.37;68.53
13486;BME280;6815;59.336;17.998;2023-08-12T11:12:18;52242.88;;;-145.37;68.45
13486;BME280;6815;59.336;17.998;2023-08-12T11:14:53;52246.84;;;-145.37;68.28
13486;BME280;6815;59.336;17.998;2023-08-12T11:17:18;52278.78;;;-145.37;68.06
13486;BME280;6815;59.336;17.998;2023-08-12T11:19:44;52196.94;;;-145.37;68.38
13486;BME280;6815;59.336;17.998;2023-08-12T11:22:10;52230.88;;;-145.37;68.32
13486;BME280;6815;59.336;17.998;2023-08-12T11:24:40;52173.00;;;-145.37;68.17
13486;BME280;6815;59.336;17.998;2023-08-12T11:27:09;52220.91;;;-145.37;68.15
13486;BME280;6815;59.336;17.998;2023-08-12T11:29:36;52216.91;;;-145.37;67.86
13486;BME280;6815;59.336;17.998;2023-08-12T11:32:02;52208.94;;;-145.37;67.91
13486;BME280;6815;59.336;17.998;2023-08-12T11:34:27;52228.88;;;-145.37;67.76
13486;BME280;6815;59.336;17.998;2023-08-12T11:36:53;52218.91;;;-145.37;67.82
13486;BME280;6815;59.336;17.998;2023-08-12T11:39:19;52208.94;;;-145.37;67.35
13486;BME280;6815;59.336;17.998;2023-08-12T11:41:46;52234.88;;;-145.37;67.39
13486;BME280;6815;59.336;17.998;2023-08-12T11:44:15;52212.91;;;-145.37;67.56
13486;BME280;6815;59.336;17.998;2023-08-12T11:46:40;52228.88;;;-145.37;67.43
13486;BME280;6815;59.336;17.998;2023-08-12T11:49:06;52252.84;;;-145.37;66.97
13486;BME280;6815;59.336;17.998;2023-08-12T11:51:31;52196.94;;;-145.37;65.71
13486;BME280;6815;59.336;17.998;2023-08-12T11:53:57;52214.91;;;-145.37;65.12
13486;BME280;6815;59.336;17.998;2023-08-12T11:56:22;52182.97;;;-145.37;64.65
13486;BME280;6815;59.336;17.998;2023-08-12T11:58:52;52198.94;;;-145.37;64.29
13486;BME280;6815;59.336;17.998;2023-08-12T12:01:20;52182.97;;;-145.37;62.92
13486;BME280;6815;59.336;17.998;2023-08-12T12:03:53;52198.94;;;-145.37;62.13
13486;BME280;6815;59.336;17.998;2023-08-12T12:06:39;52210.91;;;-145.37;61.70
13486;BME280;6815;59.336;17.998;2023-08-12T12:09:09;52208.94;;;-145.37;61.70
13486;BME280;6815;59.336;17.998;2023-08-12T12:11:39;52210.91;;;-145.37;61.07
13486;BME280;6815;59.336;17.998;2023-08-12T12:14:06;52248.84;;;-145.37;60.75
13486;BME280;6815;59.336;17.998;2023-08-12T12:16:41;52242.88;;;-145.37;60.70
13486;BME280;6815;59.336;17.998;2023-08-12T12:19:27;52180.97;;;-145.37;60.66
13486;BME280;6815;59.336;17.998;2023-08-12T12:22:08;52186.97;;;-145.37;60.75
13486;BME280;6815;59.336;17.998;2023-08-12T12:24:46;52204.94;;;-145.37;60.85
13486;BME280;6815;59.336;17.998;2023-08-12T12:27:15;52204.94;;;-145.37;60.81
13486;BME280;6815;59.336;17.998;2023-08-12T12:29:41;52226.91;;;-145.37;60.56
13486;BME280;6815;59.336;17.998;2023-08-12T12:32:06;52206.94;;;-145.37;60.54
13486;BME280;6815;59.336;17.998;2023-08-12T12:34:32;52188.97;;;-145.37;60.83
13486;BME280;6815;59.336;17.998;2023-08-12T12:36:57;52188.97;;;-145.37;60.92
13486;BME280;6815;59.336;17.998;2023-08-12T12:39:22;52220.91;;;-145.37;61.15
13486;BME280;6815;59.336;17.998;2023-08-12T12:41:48;52165.00;;;-145.37;61.35
13486;BME280;6815;59.336;17.998;2023-08-12T12:44:14;52244.84;;;-145.37;61.56
13486;BME280;6815;59.336;17.998;2023-08-12T12:46:39;52212.91;;;-145.37;61.48
13486;BME280;6815;59.336;17.998;2023-08-12T12:49:05;52218.91;;;-145.37;60.88